createdAt,value
2019-02-07T00:00:44.072Z,11.93
2019-02-07T00:03:11.488Z,12.40
2019-02-07T00:05:38.991Z,12.80
2019-02-07T00:08:06.856Z,13.13
2019-02-07T00:10:35.033Z,13.97
2019-02-07T00:13:02.517Z,12.93
2019-02-07T00:15:30.417Z,12.63
2019-02-07T00:17:57.866Z,11.90
2019-02-07T00:20:25.449Z,12.67
2019-02-07T00:22:52.815Z,12.47
2019-02-07T00:25:21.368Z,12.63
2019-02-07T00:27:49.486Z,12.83
2019-02-07T00:30:17.052Z,12.57
2019-02-07T00:32:44.712Z,11.87
2019-02-07T00:35:12.730Z,12.33
2019-02-07T00:37:40.264Z,11.93
2019-02-07T00:40:10.795Z,12.87
2019-02-07T00:42:38.185Z,13.00
2019-02-07T00:45:09.028Z,12.50
2019-02-07T00:47:36.529Z,12.57
2019-02-07T00:50:05.207Z,11.93
2019-02-07T00:52:32.651Z,12.63
2019-02-07T00:55:00.372Z,13.43
2019-02-07T00:57:27.811Z,13.53
2019-02-07T00:59:55.684Z,12.37
2019-02-07T01:02:23.127Z,12.67
2019-02-07T01:04:50.829Z,12.83
2019-02-07T01:07:18.384Z,10.97
2019-02-07T01:09:47.793Z,12.23
2019-02-07T01:12:15.239Z,11.20
2019-02-07T01:14:42.743Z,11.20
2019-02-07T01:17:10.963Z,11.77
2019-02-07T01:19:39.131Z,11.73
2019-02-07T01:22:06.663Z,10.77
2019-02-07T01:24:34.245Z,12.03
2019-02-07T01:27:02.115Z,12.43
2019-02-07T01:29:29.571Z,11.17
2019-02-07T01:31:57.176Z,11.33
2019-02-07T01:34:24.788Z,12.23
2019-02-07T01:36:52.297Z,11.13
2019-02-07T01:39:20.051Z,11.80
2019-02-07T01:41:47.590Z,12.10
2019-02-07T01:44:14.953Z,11.20
2019-02-07T01:46:42.713Z,10.20
2019-02-07T01:49:10.452Z,10.93
2019-02-07T01:51:38.334Z,11.53
2019-02-07T01:54:05.988Z,11.23
2019-02-07T01:56:33.347Z,11.93
2019-02-07T01:59:00.823Z,11.47
2019-02-07T02:01:28.369Z,10.27
2019-02-07T02:03:56.060Z,12.07
2019-02-07T02:06:23.643Z,10.20
2019-02-07T02:08:51.691Z,11.07
2019-02-07T02:11:19.419Z,10.77
2019-02-07T02:13:47.380Z,10.23
2019-02-07T02:16:14.845Z,11.97
2019-02-07T02:18:42.164Z,11.10
2019-02-07T02:21:09.511Z,10.93
2019-02-07T02:23:36.993Z,10.67
2019-02-07T02:26:05.598Z,10.73
2019-02-07T02:28:33.714Z,10.60
2019-02-07T02:31:01.410Z,10.97
2019-02-07T02:33:28.836Z,10.67
2019-02-07T02:35:56.323Z,10.80
2019-02-07T02:38:23.959Z,10.73
2019-02-07T02:40:52.044Z,10.63
2019-02-07T02:43:20.147Z,9.73
2019-02-07T02:45:47.774Z,10.50
2019-02-07T02:48:15.203Z,10.87
2019-02-07T02:50:42.735Z,9.93
2019-02-07T02:53:10.276Z,9.50
2019-02-07T02:55:40.005Z,11.37
2019-02-07T02:58:08.223Z,10.30
2019-02-07T03:01:01.727Z,9.97
2019-02-07T03:03:37.253Z,10.53
2019-02-07T03:06:12.297Z,11.13
2019-02-07T03:08:48.213Z,11.53
2019-02-07T03:11:23.769Z,11.27
2019-02-07T03:14:15.919Z,10.70
2019-02-07T03:17:06.247Z,10.20
2019-02-07T03:19:53.340Z,11.00
2019-02-07T03:22:39.412Z,11.30
2019-02-07T03:25:39.050Z,10.23
2019-02-07T03:28:22.499Z,10.70
2019-02-07T03:31:08.530Z,10.37
2019-02-07T03:34:04.380Z,9.53
2019-02-07T03:36:48.214Z,10.27
2019-02-07T03:39:35.239Z,10.33
2019-02-07T03:42:21.116Z,8.73
2019-02-07T03:45:06.931Z,9.63
2019-02-07T03:47:45.130Z,10.67
2019-02-07T03:50:30.877Z,10.70
2019-02-07T03:53:17.132Z,10.53
2019-02-07T03:56:19.924Z,9.87
2019-02-07T03:59:05.618Z,10.13
2019-02-07T04:01:52.721Z,8.80
2019-02-07T04:04:36.211Z,9.07
2019-02-07T04:07:18.271Z,9.80
2019-02-07T04:10:05.262Z,9.30
2019-02-07T04:13:01.822Z,9.43
2019-02-07T04:16:14.675Z,9.17
2019-02-07T04:18:55.346Z,8.90
2019-02-07T04:21:52.569Z,9.17
2019-02-07T04:24:38.722Z,9.30
2019-02-07T04:27:14.024Z,9.50
2019-02-07T04:30:19.276Z,8.93
2019-02-07T04:33:12.213Z,9.50
2019-02-07T04:36:01.966Z,8.23
2019-02-07T04:38:42.820Z,9.73
2019-02-07T04:41:34.945Z,9.50
2019-02-07T04:44:22.520Z,10.30
2019-02-07T04:47:09.558Z,9.97
2019-02-07T04:50:02.979Z,8.57
2019-02-07T04:52:41.215Z,9.77
2019-02-07T04:55:31.525Z,9.10
2019-02-07T04:58:16.184Z,9.03
2019-02-07T05:01:00.974Z,9.00
2019-02-07T05:03:46.853Z,9.20
2019-02-07T05:06:49.236Z,8.97
2019-02-07T05:09:47.859Z,8.83
2019-02-07T05:12:23.703Z,9.27
2019-02-07T05:15:01.856Z,9.90
2019-02-07T05:17:47.930Z,9.20
2019-02-07T05:20:33.595Z,9.97
2019-02-07T05:23:24.188Z,8.70
2019-02-07T05:26:13.829Z,7.73
2019-02-07T05:29:00.011Z,7.93
2019-02-07T05:31:50.051Z,8.00
2019-02-07T05:34:28.093Z,9.47
2019-02-07T05:37:17.928Z,8.43
2019-02-07T05:40:03.715Z,8.43
2019-02-07T05:42:49.745Z,8.67
2019-02-07T05:45:36.737Z,8.00
2019-02-07T05:48:26.720Z,8.60
2019-02-07T05:51:14.181Z,9.43
2019-02-07T05:54:07.326Z,9.17
2019-02-07T05:56:52.917Z,9.40
2019-02-07T05:59:58.516Z,7.77
2019-02-07T06:02:48.224Z,8.47
2019-02-07T06:05:31.730Z,8.83
2019-02-07T06:08:22.161Z,8.73
2019-02-07T06:10:58.688Z,9.13
2019-02-07T06:13:44.591Z,10.27
2019-02-07T06:16:30.293Z,8.63
2019-02-07T06:19:32.999Z,10.03
2019-02-07T06:22:26.000Z,8.37
2019-02-07T06:25:22.055Z,9.07
2019-02-07T06:28:07.567Z,9.57
2019-02-07T06:30:53.327Z,10.67
2019-02-07T06:33:43.357Z,11.80
2019-02-07T06:36:30.415Z,9.90
2019-02-07T06:39:28.399Z,10.50
2019-02-07T06:42:04.963Z,10.47
2019-02-07T06:44:52.401Z,9.90
2019-02-07T06:47:38.939Z,8.60
2019-02-07T06:50:32.394Z,8.63
2019-02-07T06:53:11.279Z,9.10
2019-02-07T06:56:04.485Z,8.90
2019-02-07T06:58:47.586Z,9.17
2019-02-07T07:01:25.769Z,10.20
2019-02-07T07:04:15.768Z,9.53
2019-02-07T07:07:08.542Z,9.13
2019-02-07T07:10:01.827Z,8.70
2019-02-07T07:12:47.594Z,10.57
2019-02-07T07:15:40.213Z,8.17
2019-02-07T07:18:21.723Z,8.23
2019-02-07T07:21:08.719Z,8.53
2019-02-07T07:23:54.318Z,8.07
2019-02-07T07:26:59.315Z,9.33
2019-02-07T07:29:35.061Z,8.67
2019-02-07T07:32:17.957Z,8.73
2019-02-07T07:35:10.139Z,9.23
2019-02-07T07:38:00.216Z,9.90
2019-02-07T07:40:45.557Z,10.13
2019-02-07T07:43:32.677Z,9.67
2019-02-07T07:46:18.212Z,9.53
2019-02-07T07:48:55.595Z,9.53
2019-02-07T07:51:45.329Z,10.23
2019-02-07T07:54:32.934Z,10.17
2019-02-07T07:57:25.885Z,9.97
2019-02-07T08:00:20.488Z,11.03
2019-02-07T08:03:06.506Z,10.77
2019-02-07T08:05:59.931Z,10.33
2019-02-07T08:08:43.986Z,9.90
2019-02-07T08:11:39.924Z,10.03
2019-02-07T08:14:25.910Z,10.70
2019-02-07T08:17:11.699Z,8.67
2019-02-07T08:20:02.124Z,8.97
2019-02-07T08:23:09.039Z,9.07
2019-02-07T08:25:56.130Z,8.57
2019-02-07T08:28:46.142Z,8.63
2019-02-07T08:31:45.259Z,8.77
2019-02-07T08:34:28.189Z,9.30
2019-02-07T08:37:07.546Z,10.30
2019-02-07T08:40:12.607Z,9.60
2019-02-07T08:42:59.644Z,9.43
2019-02-07T08:45:58.682Z,9.80
2019-02-07T08:48:52.755Z,9.57
2019-02-07T08:51:40.265Z,9.87
2019-02-07T08:54:33.256Z,8.77
2019-02-07T08:57:20.806Z,8.33
2019-02-07T09:00:26.503Z,9.07
2019-02-07T09:03:25.621Z,9.70
2019-02-07T09:06:01.059Z,9.13
2019-02-07T09:08:39.745Z,9.00
2019-02-07T09:11:29.891Z,9.13
2019-02-07T09:14:15.444Z,9.37
2019-02-07T09:17:20.867Z,9.13
2019-02-07T09:20:13.908Z,9.73
2019-02-07T09:23:10.495Z,7.37
2019-02-07T09:26:06.503Z,9.00
2019-02-07T09:29:05.808Z,9.17
2019-02-07T09:31:51.571Z,10.10
2019-02-07T09:34:37.167Z,10.23
2019-02-07T09:37:32.971Z,9.47
2019-02-07T09:40:12.029Z,8.77
2019-02-07T09:42:48.338Z,8.43
2019-02-07T09:45:36.960Z,9.20
2019-02-07T09:48:27.052Z,9.87
2019-02-07T09:51:01.438Z,9.17
2019-02-07T09:53:55.856Z,8.93
2019-02-07T09:56:41.805Z,9.60
2019-02-07T09:59:24.602Z,10.30
2019-02-07T10:02:16.384Z,9.43
2019-02-07T10:04:50.698Z,9.83
2019-02-07T10:07:52.812Z,8.67
2019-02-07T10:10:30.771Z,8.60
2019-02-07T10:13:20.697Z,9.77
2019-02-07T10:15:57.453Z,9.47
2019-02-07T10:18:56.849Z,9.33
2019-02-07T10:21:56.126Z,8.27
2019-02-07T10:24:41.995Z,8.67
2019-02-07T10:27:24.467Z,8.53
2019-02-07T10:30:08.099Z,8.20
2019-02-07T10:32:44.222Z,9.47
2019-02-07T10:35:29.348Z,8.20
2019-02-07T10:38:09.891Z,8.17
2019-02-07T10:40:49.324Z,7.90
2019-02-07T10:43:36.341Z,8.70
2019-02-07T10:46:29.232Z,7.27
2019-02-07T10:49:15.157Z,9.60
2019-02-07T10:52:10.059Z,8.37
2019-02-07T10:55:03.294Z,8.93
2019-02-07T10:57:55.203Z,8.87
2019-02-07T11:00:41.544Z,8.20
2019-02-07T11:03:28.700Z,7.63
2019-02-07T11:06:24.587Z,8.70
2019-02-07T11:09:07.588Z,8.13
2019-02-07T11:12:07.158Z,9.20
2019-02-07T11:14:45.083Z,9.03
2019-02-07T11:17:37.889Z,9.03
2019-02-07T11:20:28.598Z,9.63
2019-02-07T11:23:21.698Z,8.30
2019-02-07T11:26:23.852Z,9.40
2019-02-07T11:29:04.844Z,8.90
2019-02-07T11:31:58.428Z,10.30
2019-02-07T11:34:38.661Z,10.23
2019-02-07T11:37:44.264Z,10.47
2019-02-07T11:40:31.485Z,10.50
2019-02-07T11:43:12.010Z,10.07
2019-02-07T11:45:49.980Z,10.10
2019-02-07T11:48:29.043Z,9.97
2019-02-07T11:51:12.995Z,10.87
2019-02-07T11:53:48.683Z,10.83
2019-02-07T11:56:31.762Z,10.63
2019-02-07T11:59:08.407Z,10.30
2019-02-07T12:01:54.464Z,10.00
2019-02-07T12:04:47.542Z,10.83
2019-02-07T12:07:30.358Z,10.10
2019-02-07T12:10:13.229Z,9.40
2019-02-07T12:12:58.997Z,10.20
2019-02-07T12:15:55.090Z,9.20
2019-02-07T12:18:48.136Z,8.50
2019-02-07T12:21:32.843Z,8.87
2019-02-07T12:24:23.375Z,8.27
2019-02-07T12:27:10.384Z,7.53
2019-02-07T12:29:56.776Z,7.40
2019-02-07T12:32:30.311Z,7.43
2019-02-07T12:35:06.055Z,8.57
2019-02-07T12:37:41.218Z,8.47
2019-02-07T12:40:28.193Z,7.93
2019-02-07T12:43:21.394Z,8.37
2019-02-07T12:46:07.519Z,8.93
2019-02-07T12:48:57.979Z,8.20
2019-02-07T12:51:43.729Z,9.20
2019-02-07T12:54:34.695Z,7.50
2019-02-07T12:57:25.117Z,7.10
2019-02-07T13:00:10.974Z,6.77
2019-02-07T13:02:51.247Z,7.13
2019-02-07T13:05:37.276Z,7.83
2019-02-07T13:08:30.795Z,6.70
2019-02-07T13:11:08.467Z,6.97
2019-02-07T13:14:04.672Z,6.10
2019-02-07T13:17:09.967Z,6.43
2019-02-07T13:20:09.252Z,6.10
2019-02-07T13:23:14.745Z,6.20
2019-02-07T13:25:52.228Z,5.57
2019-02-07T13:28:54.336Z,6.40
2019-02-07T13:31:42.287Z,5.80
2019-02-07T13:34:23.672Z,5.73
2019-02-07T13:37:16.749Z,5.33
2019-02-07T13:40:19.111Z,5.67
2019-02-07T13:43:06.758Z,5.77
2019-02-07T13:45:59.527Z,5.60
2019-02-07T13:48:45.522Z,5.60
2019-02-07T13:51:31.223Z,5.50
2019-02-07T13:54:23.537Z,4.80
2019-02-07T13:57:10.980Z,5.67
2019-02-07T13:59:58.088Z,4.90
2019-02-07T14:02:40.607Z,4.73
2019-02-07T14:05:23.719Z,5.10
2019-02-07T14:08:10.719Z,4.70
2019-02-07T14:11:13.234Z,4.03
2019-02-07T14:13:59.052Z,4.57
2019-02-07T14:16:45.113Z,4.20
2019-02-07T14:19:25.448Z,4.07
2019-02-07T14:22:11.261Z,3.43
2019-02-07T14:24:49.260Z,4.37
2019-02-07T14:27:29.275Z,3.73
2019-02-07T14:30:19.391Z,9.30
2019-02-07T14:33:21.820Z,5.23
2019-02-07T14:36:08.771Z,4.27
2019-02-07T14:38:56.624Z,4.10
2019-02-07T14:41:44.698Z,14.20
2019-02-07T14:44:46.814Z,4.27
2019-02-07T14:47:14.453Z,4.80
2019-02-07T14:49:41.958Z,9.57
2019-02-07T14:52:10.230Z,8.10
2019-02-07T14:54:37.790Z,4.80
2019-02-07T14:57:05.143Z,8.10
2019-02-07T14:59:32.912Z,5.23
2019-02-07T15:02:00.367Z,5.63
2019-02-07T15:04:27.901Z,4.23
2019-02-07T15:06:55.465Z,3.70
2019-02-07T15:09:22.986Z,3.40
2019-02-07T15:11:50.607Z,4.53
2019-02-07T15:14:18.281Z,3.93
2019-02-07T15:16:45.939Z,3.67
2019-02-07T15:19:13.417Z,4.70
2019-02-07T15:21:40.962Z,4.93
2019-02-07T15:24:08.990Z,5.30
2019-02-07T15:26:36.604Z,5.83
2019-02-07T15:29:04.966Z,6.00
2019-02-07T15:31:32.731Z,4.40
2019-02-07T15:34:00.211Z,5.60
2019-02-07T15:36:27.926Z,6.17
2019-02-07T15:38:55.544Z,6.67
2019-02-07T15:41:24.483Z,4.30
2019-02-07T15:43:51.956Z,3.93
2019-02-07T15:46:19.539Z,3.77
2019-02-07T15:48:47.059Z,3.87
2019-02-07T15:51:15.169Z,5.03
2019-02-07T15:53:42.918Z,3.90
2019-02-07T15:56:10.468Z,3.07
2019-02-07T15:58:49.432Z,3.90
2019-02-07T16:01:22.798Z,3.60
2019-02-07T16:04:00.689Z,3.93
2019-02-07T16:06:28.326Z,4.53
2019-02-07T16:08:56.266Z,4.30
2019-02-07T16:11:23.902Z,4.90
2019-02-07T16:13:52.751Z,4.57
2019-02-07T16:16:20.353Z,4.17
2019-02-07T16:18:48.403Z,3.63
2019-02-07T16:21:15.916Z,3.70
2019-02-07T16:23:43.532Z,3.13
2019-02-07T16:26:11.286Z,3.50
2019-02-07T16:28:38.734Z,4.90
2019-02-07T16:31:06.218Z,6.10
2019-02-07T16:33:33.733Z,6.40
2019-02-07T16:36:01.342Z,5.33
2019-02-07T16:38:28.843Z,9.47
2019-02-07T16:40:56.362Z,9.10
2019-02-07T16:43:24.170Z,6.47
2019-02-07T16:45:52.025Z,7.83
2019-02-07T16:48:19.683Z,5.60
2019-02-07T16:50:47.304Z,4.97
2019-02-07T16:53:14.895Z,3.83
2019-02-07T16:55:42.451Z,4.10
2019-02-07T16:58:09.994Z,3.80
2019-02-07T17:00:38.016Z,3.90
2019-02-07T17:03:06.153Z,4.03
2019-02-07T17:05:33.811Z,4.73
2019-02-07T17:08:01.471Z,4.37
2019-02-07T17:10:30.652Z,5.23
2019-02-07T17:12:58.193Z,4.77
2019-02-07T17:15:25.676Z,4.30
2019-02-07T17:17:53.615Z,4.37
2019-02-07T17:20:24.060Z,4.43
2019-02-07T17:22:51.739Z,4.77
2019-02-07T17:25:19.332Z,5.70
2019-02-07T17:27:47.179Z,6.00
2019-02-07T17:30:15.593Z,5.73
2019-02-07T17:32:43.292Z,5.93
2019-02-07T17:35:11.791Z,6.30
2019-02-07T17:37:39.315Z,6.80
2019-02-07T17:40:10.486Z,6.93
2019-02-07T17:42:38.144Z,7.03
2019-02-07T17:45:06.964Z,8.43
2019-02-07T17:47:34.444Z,7.30
2019-02-07T17:50:04.291Z,8.23
2019-02-07T17:52:31.951Z,9.93
2019-02-07T17:54:59.456Z,11.37
2019-02-07T17:57:26.953Z,11.57
2019-02-07T17:59:54.546Z,11.00
2019-02-07T18:02:22.071Z,10.10
2019-02-07T18:04:49.645Z,9.57
2019-02-07T18:07:17.412Z,9.67
2019-02-07T18:09:45.343Z,9.20
2019-02-07T18:12:12.875Z,7.73
2019-02-07T18:14:40.955Z,7.60
2019-02-07T18:17:08.779Z,6.53
2019-02-07T18:19:36.322Z,9.70
2019-02-07T18:22:03.937Z,9.33
2019-02-07T18:24:31.458Z,9.43
2019-02-07T18:26:58.989Z,9.63
2019-02-07T18:29:26.740Z,7.83
2019-02-07T18:31:54.257Z,7.53
2019-02-07T18:34:21.773Z,7.97
2019-02-07T18:36:49.204Z,7.20
2019-02-07T18:39:16.743Z,8.57
2019-02-07T18:41:46.628Z,8.10
2019-02-07T18:44:14.231Z,7.43
2019-02-07T18:46:41.733Z,11.03
2019-02-07T18:49:09.125Z,7.97
2019-02-07T18:51:45.263Z,9.63
2019-02-07T18:54:07.006Z,8.03
2019-02-07T18:56:34.510Z,7.90
2019-02-07T18:59:03.631Z,6.80
2019-02-07T19:01:32.059Z,7.27
2019-02-07T19:04:00.765Z,7.70
2019-02-07T19:06:29.170Z,6.90
2019-02-07T19:08:57.712Z,6.20
2019-02-07T19:11:26.618Z,6.37
2019-02-07T19:13:55.005Z,6.63
2019-02-07T19:16:23.619Z,5.67
2019-02-07T19:18:52.961Z,6.20
2019-02-07T19:21:22.146Z,7.07
2019-02-07T19:23:50.388Z,5.83
2019-02-07T19:26:18.389Z,5.73
2019-02-07T19:28:46.883Z,6.77
2019-02-07T19:31:15.405Z,6.27
2019-02-07T19:33:44.479Z,7.33
2019-02-07T19:36:13.696Z,8.00
2019-02-07T19:38:42.168Z,8.40
2019-02-07T19:41:10.382Z,8.10
2019-02-07T19:43:39.097Z,6.83
2019-02-07T19:46:08.427Z,6.47
2019-02-07T19:48:36.910Z,5.60
2019-02-07T19:51:05.208Z,5.23
2019-02-07T19:53:33.500Z,5.80
2019-02-07T19:56:01.646Z,4.70
2019-02-07T19:58:30.596Z,4.67
2019-02-07T20:00:58.856Z,3.90
2019-02-07T20:03:28.407Z,3.27
2019-02-07T20:05:57.109Z,3.53
2019-02-07T20:08:26.334Z,3.70
2019-02-07T20:10:54.745Z,2.87
2019-02-07T20:13:23.147Z,3.80
2019-02-07T20:15:51.703Z,2.83
2019-02-07T20:18:20.262Z,3.03
2019-02-07T20:20:49.506Z,3.00
2019-02-07T20:23:18.201Z,3.03
2019-02-07T20:25:46.597Z,3.43
2019-02-07T20:28:14.871Z,3.50
2019-02-07T20:30:43.418Z,2.90
2019-02-07T20:33:12.108Z,2.50
2019-02-07T20:35:40.625Z,2.53
2019-02-07T20:38:10.105Z,2.60
2019-02-07T20:40:38.805Z,2.80
2019-02-07T20:43:08.252Z,3.23
2019-02-07T20:45:37.274Z,3.47
2019-02-07T20:48:06.941Z,3.30
2019-02-07T20:50:36.111Z,4.10
2019-02-07T20:53:05.090Z,4.17
2019-02-07T20:55:35.011Z,3.43
2019-02-07T20:58:04.299Z,3.00
2019-02-07T21:00:33.707Z,4.00
2019-02-07T21:03:03.341Z,3.50
2019-02-07T21:05:32.069Z,3.77
2019-02-07T21:08:00.181Z,4.17
2019-02-07T21:10:29.527Z,3.97
2019-02-07T21:12:58.944Z,4.30
2019-02-07T21:15:27.717Z,4.67
2019-02-07T21:17:55.931Z,4.63
2019-02-07T21:20:26.203Z,4.60
2019-02-07T21:22:55.181Z,4.17
2019-02-07T21:25:35.578Z,4.40
2019-02-07T21:28:04.808Z,3.93
2019-02-07T21:30:33.448Z,4.50
2019-02-07T21:33:01.875Z,4.60
2019-02-07T21:35:30.220Z,5.33
2019-02-07T21:37:58.398Z,5.60
2019-02-07T21:40:27.984Z,4.83
2019-02-07T21:42:57.418Z,6.90
2019-02-07T21:45:25.932Z,6.17
2019-02-07T21:47:54.464Z,5.17
2019-02-07T21:50:23.707Z,4.87
2019-02-07T21:52:52.746Z,4.67
2019-02-07T21:55:22.940Z,4.03
2019-02-07T21:57:51.179Z,4.07
2019-02-07T22:00:34.040Z,4.33
2019-02-07T22:03:04.273Z,3.90
2019-02-07T22:05:32.718Z,4.00
2019-02-07T22:08:01.154Z,4.40
2019-02-07T22:10:29.222Z,5.27
2019-02-07T22:12:57.854Z,5.10
2019-02-07T22:15:27.330Z,4.27
2019-02-07T22:17:57.023Z,4.23
2019-02-07T22:20:25.619Z,4.37
2019-02-07T22:22:54.084Z,4.73
2019-02-07T22:25:22.872Z,4.77
2019-02-07T22:27:51.364Z,4.40
2019-02-07T22:30:25.665Z,5.10
2019-02-07T22:32:54.448Z,4.27
2019-02-07T22:35:22.859Z,4.33
2019-02-07T22:37:50.820Z,4.83
2019-02-07T22:40:20.217Z,4.77
2019-02-07T22:42:48.646Z,5.07
2019-02-07T22:45:17.876Z,6.33
2019-02-07T22:47:46.732Z,4.83
2019-02-07T22:50:17.858Z,6.27
2019-02-07T22:52:46.095Z,5.73
2019-02-07T22:55:14.982Z,6.23
2019-02-07T22:57:43.305Z,6.23
2019-02-07T23:01:09.983Z,6.50
2019-02-07T23:03:40.671Z,6.50
2019-02-07T23:06:09.240Z,6.30
2019-02-07T23:08:37.418Z,7.23
2019-02-07T23:11:07.693Z,6.50
2019-02-07T23:13:36.095Z,6.80
2019-02-07T23:16:06.366Z,7.57
2019-02-07T23:18:34.904Z,6.80
2019-02-07T23:21:04.009Z,6.17
2019-02-07T23:23:32.203Z,6.50
2019-02-07T23:26:00.546Z,5.50
2019-02-07T23:28:29.406Z,6.10
2019-02-07T23:30:58.060Z,6.17
2019-02-07T23:33:26.192Z,5.40
2019-02-07T23:35:54.393Z,5.60
2019-02-07T23:38:23.058Z,5.23
2019-02-07T23:40:51.354Z,5.10
2019-02-07T23:43:19.539Z,6.20
2019-02-07T23:45:47.809Z,5.17
2019-02-07T23:48:16.173Z,5.73
2019-02-07T23:50:44.495Z,5.50
2019-02-07T23:53:14.707Z,5.50
2019-02-07T23:55:43.061Z,5.10
2019-02-07T23:58:11.282Z,4.70
